Gällivare Airport

ESNG · 北博滕, 瑞典

罗盘
风向 的 风向 040° Gällivare Airport 12/30
风: 5 kt, 2 beaufort

1 kt

5 kt
改变
0 1.000 2.000 3.000 4.000 5.000
FEW 500 ft
OVC 2.700 ft
METAR EFET 080620Z AUTO 04005KT 9999 FEW005 OVC027 M08/M09 Q1012

METAR Gällivare Airport - ESNG/GEV

Gällivare Airport是,瑞典中的中型机场。 该机场有一条跑道: 12/30. 该领域的国际民航组织标志是ESNG 它的国际航空运输协会代码是GEV.

这份报告是针对2022年12月8日 08:20, 当地时间在Enontekio Airport进行的。

机场观察

风向为040°,速度为5 kt。

可见度为10 km 或者更多。

有几云在500 ft的高度 和 乌云密布在2.700 ft的高度。 破损或更高的上限为2.700 ft。

温度为-8 °C,阵风为-14 °C。 露点为-9 °C,相对湿度为93%。 海平面上的气压为1012 hPa (QNH)。

白天

今天,太阳从10:17升起,在12:39降落。 这适用于Gällivare Airport,世界夏令时可能有所不同。 当地时间与世界标准时间之间的时差为+1 小时。 当前,没有夏令时有效。

公司介绍

我们没有关于这个机场的公司信息。

体会

到Vliegles.nl去找飞行课程,跳伞和其他飞行体验。 浏览页面,了解Gällivare Airport附近所有可用的活动。 你也可以使用搜索功能来寻找你所在地附近的特定飞行课程、跳伞或其他飞行体验。

跑道

Id 标题 侧风 逆风 侧风 %
12/30 117°-297° 5 kt 1 kt 97 %

逆风成分最大的方向会被突出显示,并用于横风计算。 这并不一定意味着这个方向在使用。

乌云

500 ft FEW 几云
2.700 ft OVC 乌云密布

温度 & 天气

温度 -8 °C
露点 -9 °C
相对湿度 93%
风寒 -14 °C
Kp-index 1 (0-9)

小工具

你想在你的网站上有一个关于Gällivare Airport的当前航空天气(METAR)的小部件吗?

显示HTML代码

我们和第三方通过cookies跟踪您在我们网站上的互联网行为。如果你继续,我们认为你同意我们的饼干政策